Airfield :
LOGIN :

Register | Disclaimer

   EN    FR    IT 

 










Legend :    VFR   Marginal VFR   IFR   Intensive IFR   Very Intensive IFR
Visi :
Ceiling :
>= 8 km
>= 3000ft
5 to 8 km
1000 to 3000 ft
1500m to 5 km
500 to 1000 ft
800 to 1500m
200 to 500 ft
< 800m
< 200 ft
Symbols :   Thunderstorms  Fog  Heavy snow  Heavy precipitations  Wind > 20 kt
SIGMETs :     Misc.  Thunderstorms  Icing  Turbulence  Mountain Waves  Volcanic Ashes







- Airport Elevation : 309 ft
- IATA code : FNI
- Download approach charts


LFTW - Nîmes Garons

CURRENT METAR :
  • 160800Z AUTO 05004KT CAVOK 16/14 Q1017 TEMPO SHRA BKN010 FEW020TCU

EXPIRED METARs :
  • 160730Z AUTO 04005KT 9000 NSC 16/14 Q1017 TEMPO SHRA BKN010 FEW020TCU
  • 160700Z AUTO 07004KT 9999 BKN049 BKN064 OVC082 16/14 Q1017 TEMPO SHRA BKN010 FEW020TCU
  • 160630Z AUTO 06003KT CAVOK 16/14 Q1016 TEMPO SHRA BKN010 FEW020TCU
  • 160600Z AUTO 07004KT CAVOK 16/14 Q1016 TEMPO 4000 TSRA BKN010 FEW020TCU
  • 160530Z AUTO 04004KT 8000 NSC 15/14 Q1015 TEMPO 4000 TSRA BKN010 FEW020TCU

TAF TAF LFTW
Valid from the 16 at 03:00 until the 17 at 03:00 UTC


160200Z 1603/1703 01008KT 9999 BKN030
TEMPO 1603/1605 09010KT
TEMPO 1603/1610 SHRA BKN010 FEW020TCU
PROB30
TEMPO 1603/1607 4000 TSRA BKN010 SCT020CB
BECMG 1611/1613 VRB03KT
BECMG 1620/1622 NSC
No reported NOTAMs for that airfield.



MET'MAP, your aeronautical weather chart ! - Copyright ORBIFLY December 2007 - Disclaimer

ORBIFLY MET'MAP TEAM :

Programming & Development : Alexandra Zaïnal
Concept & Development : Baudouin d'Aumeries
Co-Development & Prog : Marc-Olivier Méhu
Technical & hardware support : Manuel Goepfert

Contact : metmap@orbifly.com




SOURCES & CREDITS :

   NOAA